createdAt,value
2023-01-15T00:00:02.215Z,-7.86
2023-01-15T00:05:08.283Z,-7.88
2023-01-15T00:10:14.763Z,-7.87
2023-01-15T00:15:17.527Z,-7.81
2023-01-15T00:20:20.253Z,-7.86
2023-01-15T00:25:41.117Z,-7.71
2023-01-15T00:30:43.828Z,-7.74
2023-01-15T00:35:48.889Z,-7.74
2023-01-15T00:40:53.254Z,-7.60
2023-01-15T00:45:55.944Z,-7.62
2023-01-15T00:50:58.937Z,-7.72
2023-01-15T00:56:01.548Z,-7.82
2023-01-15T01:01:06.018Z,-7.81
2023-01-15T01:06:08.970Z,-7.65
2023-01-15T01:11:14.131Z,-7.65
2023-01-15T01:16:33.900Z,-7.82
2023-01-15T01:21:39.107Z,-7.77
2023-01-15T01:26:46.835Z,-7.76
2023-01-15T01:31:51.485Z,-7.70
2023-01-15T01:36:54.553Z,-7.66
2023-01-15T01:41:57.242Z,-7.62
2023-01-15T01:47:24.093Z,-7.57
2023-01-15T01:52:37.572Z,-7.52
2023-01-15T01:57:41.037Z,-7.57
2023-01-15T02:02:49.617Z,-7.55
2023-01-15T02:07:52.332Z,-7.67
2023-01-15T02:13:17.733Z,-7.66
2023-01-15T02:18:42.865Z,-7.64
2023-01-15T02:24:17.842Z,-7.56
2023-01-15T02:29:53.263Z,-7.70
2023-01-15T02:35:02.393Z,-7.64
2023-01-15T02:40:09.414Z,-7.76
2023-01-15T02:45:14.530Z,-7.70
2023-01-15T02:50:23.795Z,-7.71
2023-01-15T02:55:35.343Z,-7.89
2023-01-15T03:00:43.882Z,-7.85
2023-01-15T03:05:58.529Z,-8.08
2023-01-15T03:11:09.092Z,-8.20
2023-01-15T03:16:37.770Z,-8.23
2023-01-15T03:21:52.336Z,-8.46
2023-01-15T03:26:55.512Z,-8.34
2023-01-15T03:32:00.539Z,-8.20
2023-01-15T03:37:04.500Z,-8.37
2023-01-15T03:42:17.638Z,-8.25
2023-01-15T03:47:34.506Z,-8.26
2023-01-15T03:53:23.754Z,-8.25
2023-01-15T03:58:58.321Z,-8.24
2023-01-15T04:04:14.660Z,-8.38
2023-01-15T04:09:18.142Z,-8.41
2023-01-15T04:14:21.419Z,-8.28
2023-01-15T04:19:27.854Z,-8.30
2023-01-15T04:24:42.394Z,-8.32
2023-01-15T04:29:44.916Z,-8.25
2023-01-15T04:34:47.448Z,-8.29
2023-01-15T04:39:50.596Z,-8.30
2023-01-15T04:44:53.151Z,-8.26
2023-01-15T04:49:55.748Z,-8.22
2023-01-15T04:54:58.336Z,-8.29
2023-01-15T05:00:00.813Z,-8.18
2023-01-15T05:05:03.446Z,-8.14
2023-01-15T05:10:06.704Z,-8.18
2023-01-15T05:15:11.852Z,-8.10
2023-01-15T05:20:15.683Z,-8.12
2023-01-15T05:25:18.218Z,-7.93
2023-01-15T05:30:20.766Z,-8.13
2023-01-15T05:35:23.242Z,-7.86
2023-01-15T05:40:26.957Z,-7.72
2023-01-15T05:45:29.456Z,-7.67
2023-01-15T05:50:34.306Z,-7.71
2023-01-15T05:55:36.768Z,-7.62
2023-01-15T06:00:39.300Z,-7.62
2023-01-15T06:05:41.822Z,-7.59
2023-01-15T06:10:48.138Z,-7.77
2023-01-15T06:15:50.904Z,-7.73
2023-01-15T06:20:53.467Z,-7.61
2023-01-15T06:25:59.560Z,-7.52
2023-01-15T06:31:06.716Z,-7.42
2023-01-15T06:36:12.360Z,-7.43
2023-01-15T06:41:39.947Z,-7.28
2023-01-15T06:47:04.961Z,-7.39
2023-01-15T06:52:07.589Z,-7.31
2023-01-15T06:57:10.277Z,-7.22
2023-01-15T07:02:12.841Z,-7.34
2023-01-15T07:07:19.366Z,-7.40
2023-01-15T07:12:23.055Z,-7.09
2023-01-15T07:17:25.567Z,-6.96
2023-01-15T07:22:28.334Z,-7.14
2023-01-15T07:27:30.942Z,-6.96
2023-01-15T07:32:33.556Z,-6.94
2023-01-15T07:37:36.309Z,-6.83
2023-01-15T07:42:57.215Z,-6.66
2023-01-15T07:48:18.287Z,-6.51
2023-01-15T07:53:20.765Z,-6.45
2023-01-15T07:58:28.955Z,-6.34
2023-01-15T08:03:35.724Z,-6.27
2023-01-15T08:08:38.371Z,-6.57
2023-01-15T08:14:00.837Z,-6.43
2023-01-15T08:19:03.946Z,-6.25
2023-01-15T08:24:06.787Z,-6.23
2023-01-15T08:34:25.706Z,-5.71
2023-01-15T08:39:28.979Z,-5.50
2023-01-15T08:44:31.594Z,-5.63
2023-01-15T08:49:36.703Z,-5.46
2023-01-15T08:54:40.836Z,-5.39
2023-01-15T08:59:44.640Z,-5.25
2023-01-15T09:04:50.220Z,-5.35
2023-01-15T09:09:54.178Z,-5.38
2023-01-15T09:15:04.617Z,-5.42
2023-01-15T09:20:10.940Z,-5.43
2023-01-15T09:25:13.489Z,-5.21
2023-01-15T09:30:21.277Z,-5.34
2023-01-15T09:35:23.852Z,-4.97
2023-01-15T09:40:35.386Z,-5.06
2023-01-15T09:46:05.373Z,-5.05
2023-01-15T09:51:53.150Z,-5.19
2023-01-15T09:56:56.325Z,-5.10
2023-01-15T10:02:00.964Z,-4.85
2023-01-15T10:07:22.005Z,-5.01
2023-01-15T10:12:35.866Z,-4.72
2023-01-15T10:17:54.276Z,-4.87
2023-01-15T10:23:10.962Z,-4.93
2023-01-15T10:28:38.724Z,-4.81
2023-01-15T10:34:06.123Z,-4.76
2023-01-15T10:39:08.519Z,-4.77
2023-01-15T10:44:13.725Z,-4.64
2023-01-15T10:49:18.818Z,-4.51
2023-01-15T10:54:32.394Z,-4.45
2023-01-15T10:59:53.123Z,-4.50
2023-01-15T11:04:55.789Z,-4.35
2023-01-15T11:10:03.964Z,-4.17
2023-01-15T11:15:40.432Z,-4.08
2023-01-15T11:20:48.293Z,-4.19
2023-01-15T11:25:54.787Z,-4.14
2023-01-15T11:30:57.429Z,-4.14
2023-01-15T11:36:03.088Z,-4.18
2023-01-15T11:41:05.697Z,-4.25
2023-01-15T11:46:46.691Z,-4.26
2023-01-15T11:51:49.751Z,-4.15
2023-01-15T11:56:52.808Z,-4.10
2023-01-15T12:02:00.465Z,-4.38
2023-01-15T12:07:05.365Z,-4.35
2023-01-15T12:12:36.277Z,-4.30
2023-01-15T12:17:48.379Z,-4.36
2023-01-15T12:23:03.348Z,-4.47
2023-01-15T12:28:34.003Z,-4.43
2023-01-15T12:33:48.872Z,-4.59
2023-01-15T12:38:51.345Z,-4.55
2023-01-15T12:44:16.402Z,-4.64
2023-01-15T12:49:35.099Z,-4.77
2023-01-15T12:54:52.077Z,-4.76
2023-01-15T13:00:03.502Z,-4.67
2023-01-15T13:05:09.276Z,-4.62
2023-01-15T13:10:19.722Z,-4.70
2023-01-15T13:15:31.029Z,-4.75
2023-01-15T13:20:52.017Z,-4.83
2023-01-15T13:26:21.473Z,-4.94
2023-01-15T13:31:42.155Z,-4.86
2023-01-15T13:36:48.267Z,-4.77
2023-01-15T13:42:11.585Z,-4.80
2023-01-15T13:47:24.408Z,-4.82
2023-01-15T13:52:31.434Z,-4.83
2023-01-15T13:57:40.752Z,-4.94
2023-01-15T14:02:56.508Z,-4.90
2023-01-15T14:08:01.720Z,-4.89
2023-01-15T14:13:22.934Z,-4.85
2023-01-15T14:18:43.754Z,-4.85
2023-01-15T14:24:23.560Z,-4.84
2023-01-15T14:30:03.110Z,-4.77
2023-01-15T14:35:15.319Z,-4.74
2023-01-15T14:40:23.191Z,-4.75
2023-01-15T14:45:33.846Z,-4.76
2023-01-15T14:50:41.267Z,-4.69
2023-01-15T14:55:57.279Z,-4.65
2023-01-15T15:01:04.994Z,-4.78
2023-01-15T15:06:12.689Z,-4.65
2023-01-15T15:11:47.707Z,-4.74
2023-01-15T15:16:54.130Z,-4.75
2023-01-15T15:22:03.285Z,-4.68
2023-01-15T15:27:22.273Z,-4.63
2023-01-15T15:32:29.849Z,-4.63
2023-01-15T15:37:35.151Z,-4.73
2023-01-15T15:43:08.586Z,-4.62
2023-01-15T15:48:37.392Z,-4.82
2023-01-15T15:53:39.882Z,-4.70
2023-01-15T15:58:42.491Z,-4.78
2023-01-15T16:03:48.743Z,-4.81
2023-01-15T16:08:56.829Z,-4.76
2023-01-15T16:14:04.288Z,-4.76
2023-01-15T16:19:10.689Z,-4.83
2023-01-15T16:24:25.463Z,-4.77
2023-01-15T16:29:31.832Z,-4.70
2023-01-15T16:34:35.563Z,-4.70
2023-01-15T16:39:44.354Z,-4.69
2023-01-15T16:44:54.489Z,-4.70
2023-01-15T16:50:25.228Z,-4.71
2023-01-15T16:55:53.342Z,-4.72
2023-01-15T17:01:34.629Z,-4.77
2023-01-15T17:06:38.269Z,-4.82
2023-01-15T17:11:41.056Z,-4.80
2023-01-15T17:16:43.601Z,-4.80
2023-01-15T17:21:47.729Z,-4.85
2023-01-15T17:26:50.286Z,-4.95
2023-01-15T17:31:54.563Z,-4.89
2023-01-15T17:36:57.027Z,-4.87
2023-01-15T17:42:00.033Z,-4.88
2023-01-15T17:47:02.561Z,-4.86
2023-01-15T17:52:07.538Z,-4.84
2023-01-15T17:57:28.534Z,-5.02
2023-01-15T18:02:49.468Z,-4.95
2023-01-15T18:07:54.155Z,-4.92
2023-01-15T18:12:56.729Z,-4.89
2023-01-15T18:17:59.226Z,-4.94
2023-01-15T18:23:01.705Z,-4.91
2023-01-15T18:28:07.338Z,-4.94
2023-01-15T18:33:12.401Z,-4.92
2023-01-15T18:38:17.713Z,-4.91
2023-01-15T18:43:38.408Z,-4.88
2023-01-15T18:48:40.887Z,-4.87
2023-01-15T18:53:43.376Z,-4.95
2023-01-15T18:58:45.831Z,-4.95
2023-01-15T19:03:48.352Z,-4.89
2023-01-15T19:08:50.939Z,-4.91
2023-01-15T19:14:12.614Z,-4.93
2023-01-15T19:19:18.835Z,-4.85
2023-01-15T19:24:21.372Z,-4.81
2023-01-15T19:29:24.077Z,-4.88
2023-01-15T19:34:34.587Z,-4.80
2023-01-15T19:39:37.200Z,-4.73
2023-01-15T19:44:58.499Z,-4.65
2023-01-15T19:50:24.436Z,-4.61
2023-01-15T19:55:29.817Z,-4.64
2023-01-15T20:00:36.823Z,-4.65
2023-01-15T20:05:42.089Z,-4.73
2023-01-15T20:11:48.975Z,-4.82
2023-01-15T20:16:25.766Z,-4.91
2023-01-15T20:21:28.288Z,-4.88
2023-01-15T20:26:30.830Z,-4.99
2023-01-15T20:31:34.257Z,-4.97
2023-01-15T20:36:39.868Z,-5.10
2023-01-15T20:42:01.014Z,-5.08
2023-01-15T20:47:23.459Z,-4.99
2023-01-15T20:52:26.287Z,-4.93
2023-01-15T20:57:28.815Z,-4.92
2023-01-15T21:02:31.564Z,-4.96
2023-01-15T21:07:35.719Z,-5.03
2023-01-15T21:12:38.239Z,-5.05
2023-01-15T21:17:41.314Z,-5.07
2023-01-15T21:22:44.549Z,-5.11
2023-01-15T21:27:47.032Z,-5.08
2023-01-15T21:32:49.562Z,-5.17
2023-01-15T21:37:52.160Z,-5.09
2023-01-15T21:43:13.034Z,-5.17
2023-01-15T21:48:15.639Z,-5.12
2023-01-15T21:53:18.244Z,-5.11
2023-01-15T21:58:21.270Z,-5.10
2023-01-15T22:03:24.969Z,-5.14
2023-01-15T22:08:27.595Z,-5.09
2023-01-15T22:13:30.245Z,-5.09
2023-01-15T22:18:34.105Z,-5.08
2023-01-15T22:23:36.870Z,-5.06
2023-01-15T22:28:39.430Z,-4.90
2023-01-15T22:33:46.580Z,-4.99
2023-01-15T22:38:54.674Z,-4.98
2023-01-15T22:43:59.924Z,-5.04
2023-01-15T22:49:03.070Z,-5.00
2023-01-15T22:54:05.798Z,-4.95
2023-01-15T22:59:09.167Z,-4.93
2023-01-15T23:04:23.636Z,-4.92
2023-01-15T23:09:26.595Z,-4.89
2023-01-15T23:14:29.187Z,-4.88
2023-01-15T23:19:31.738Z,-4.88
2023-01-15T23:24:34.526Z,-4.91
2023-01-15T23:29:37.204Z,-4.84
2023-01-15T23:34:39.932Z,-4.86
2023-01-15T23:39:42.527Z,-4.92
2023-01-15T23:45:03.443Z,-4.88
2023-01-15T23:50:06.660Z,-4.83
2023-01-15T23:55:09.820Z,-4.90
